sensor_id;sensor_type;location;lat;lon;timestamp;P1;durP1;ratioP1;P2;durP2;ratioP2
12635;SDS011;6383;50.830;7.210;2022-11-15T00:00:15;14.60;;;9.63;;
12635;SDS011;6383;50.830;7.210;2022-11-15T00:02:45;11.63;;;9.35;;
12635;SDS011;6383;50.830;7.210;2022-11-15T00:05:12;12.93;;;10.38;;
12635;SDS011;6383;50.830;7.210;2022-11-15T00:07:42;13.90;;;10.07;;
12635;SDS011;6383;50.830;7.210;2022-11-15T00:10:09;12.18;;;8.60;;
12635;SDS011;6383;50.830;7.210;2022-11-15T00:12:42;12.60;;;7.43;;
12635;SDS011;6383;50.830;7.210;2022-11-15T00:15:12;13.73;;;8.55;;
12635;SDS011;6383;50.830;7.210;2022-11-15T00:17:40;10.32;;;8.57;;
12635;SDS011;6383;50.830;7.210;2022-11-15T00:20:08;10.45;;;8.48;;
12635;SDS011;6383;50.830;7.210;2022-11-15T00:22:38;13.02;;;9.00;;
12635;SDS011;6383;50.830;7.210;2022-11-15T00:25:09;10.23;;;8.07;;
12635;SDS011;6383;50.830;7.210;2022-11-15T00:27:38;16.20;;;8.90;;
12635;SDS011;6383;50.830;7.210;2022-11-15T00:30:06;12.07;;;9.20;;
12635;SDS011;6383;50.830;7.210;2022-11-15T00:32:35;13.75;;;8.80;;
12635;SDS011;6383;50.830;7.210;2022-11-15T00:35:03;12.10;;;9.13;;
12635;SDS011;6383;50.830;7.210;2022-11-15T00:37:32;11.65;;;9.05;;
12635;SDS011;6383;50.830;7.210;2022-11-15T00:40:00;11.57;;;7.75;;
12635;SDS011;6383;50.830;7.210;2022-11-15T00:42:30;10.27;;;8.18;;
12635;SDS011;6383;50.830;7.210;2022-11-15T00:44:59;11.68;;;8.63;;
12635;SDS011;6383;50.830;7.210;2022-11-15T00:47:28;14.02;;;9.38;;
12635;SDS011;6383;50.830;7.210;2022-11-15T00:49:55;13.85;;;9.00;;
12635;SDS011;6383;50.830;7.210;2022-11-15T00:52:22;10.00;;;8.63;;
12635;SDS011;6383;50.830;7.210;2022-11-15T00:54:51;10.75;;;8.05;;
12635;SDS011;6383;50.830;7.210;2022-11-15T00:57:20;14.23;;;8.23;;
12635;SDS011;6383;50.830;7.210;2022-11-15T00:59:49;9.02;;;6.95;;
12635;SDS011;6383;50.830;7.210;2022-11-15T01:02:18;8.48;;;7.05;;
12635;SDS011;6383;50.830;7.210;2022-11-15T01:04:48;12.65;;;7.70;;
12635;SDS011;6383;50.830;7.210;2022-11-15T01:07:17;16.65;;;9.05;;
12635;SDS011;6383;50.830;7.210;2022-11-15T01:09:45;13.93;;;10.07;;
12635;SDS011;6383;50.830;7.210;2022-11-15T01:12:12;10.20;;;9.18;;
12635;SDS011;6383;50.830;7.210;2022-11-15T01:14:42;10.50;;;8.07;;
12635;SDS011;6383;50.830;7.210;2022-11-15T01:17:12;14.27;;;8.57;;
12635;SDS011;6383;50.830;7.210;2022-11-15T01:19:41;15.13;;;9.23;;
12635;SDS011;6383;50.830;7.210;2022-11-15T01:22:10;12.82;;;8.40;;
12635;SDS011;6383;50.830;7.210;2022-11-15T01:24:38;14.38;;;8.20;;
12635;SDS011;6383;50.830;7.210;2022-11-15T01:27:06;9.07;;;7.50;;
12635;SDS011;6383;50.830;7.210;2022-11-15T01:29:35;11.40;;;7.75;;
12635;SDS011;6383;50.830;7.210;2022-11-15T01:32:04;10.27;;;8.18;;
12635;SDS011;6383;50.830;7.210;2022-11-15T01:34:35;14.35;;;7.32;;
12635;SDS011;6383;50.830;7.210;2022-11-15T01:37:03;12.00;;;8.35;;
12635;SDS011;6383;50.830;7.210;2022-11-15T01:39:31;11.57;;;7.85;;
12635;SDS011;6383;50.830;7.210;2022-11-15T01:41:59;9.63;;;8.50;;
12635;SDS011;6383;50.830;7.210;2022-11-15T01:44:40;13.60;;;8.43;;
12635;SDS011;6383;50.830;7.210;2022-11-15T01:47:11;9.10;;;7.18;;
12635;SDS011;6383;50.830;7.210;2022-11-15T01:49:46;10.32;;;7.93;;
12635;SDS011;6383;50.830;7.210;2022-11-15T01:52:20;12.40;;;7.20;;
12635;SDS011;6383;50.830;7.210;2022-11-15T01:54:53;12.10;;;8.20;;
12635;SDS011;6383;50.830;7.210;2022-11-15T01:57:25;10.35;;;7.30;;
12635;SDS011;6383;50.830;7.210;2022-11-15T01:59:53;8.35;;;7.15;;
12635;SDS011;6383;50.830;7.210;2022-11-15T02:02:21;9.07;;;6.72;;
12635;SDS011;6383;50.830;7.210;2022-11-15T02:04:50;10.52;;;7.32;;
12635;SDS011;6383;50.830;7.210;2022-11-15T02:07:18;8.18;;;7.18;;
12635;SDS011;6383;50.830;7.210;2022-11-15T02:09:47;9.00;;;7.03;;
12635;SDS011;6383;50.830;7.210;2022-11-15T02:12:19;9.73;;;7.22;;
12635;SDS011;6383;50.830;7.210;2022-11-15T02:14:49;9.60;;;6.95;;
12635;SDS011;6383;50.830;7.210;2022-11-15T02:17:25;7.25;;;6.47;;
12635;SDS011;6383;50.830;7.210;2022-11-15T02:20:13;8.93;;;6.32;;
12635;SDS011;6383;50.830;7.210;2022-11-15T02:23:00;9.45;;;6.93;;
12635;SDS011;6383;50.830;7.210;2022-11-15T02:25:39;7.80;;;6.28;;
12635;SDS011;6383;50.830;7.210;2022-11-15T02:28:13;11.32;;;6.28;;
12635;SDS011;6383;50.830;7.210;2022-11-15T02:31:03;8.73;;;7.20;;
12635;SDS011;6383;50.830;7.210;2022-11-15T02:33:40;7.60;;;6.60;;
12635;SDS011;6383;50.830;7.210;2022-11-15T02:36:14;9.15;;;6.50;;
12635;SDS011;6383;50.830;7.210;2022-11-15T02:38:51;9.35;;;6.85;;
12635;SDS011;6383;50.830;7.210;2022-11-15T02:41:28;6.75;;;5.80;;
12635;SDS011;6383;50.830;7.210;2022-11-15T02:43:59;9.30;;;6.40;;
12635;SDS011;6383;50.830;7.210;2022-11-15T02:46:34;7.03;;;5.30;;
12635;SDS011;6383;50.830;7.210;2022-11-15T02:49:24;7.47;;;6.15;;
12635;SDS011;6383;50.830;7.210;2022-11-15T02:51:55;7.93;;;6.20;;
12635;SDS011;6383;50.830;7.210;2022-11-15T02:54:25;6.53;;;5.90;;
12635;SDS011;6383;50.830;7.210;2022-11-15T02:56:58;6.20;;;5.60;;
12635;SDS011;6383;50.830;7.210;2022-11-15T02:59:53;6.30;;;5.50;;
12635;SDS011;6383;50.830;7.210;2022-11-15T03:05:10;7.10;;;5.63;;
12635;SDS011;6383;50.830;7.210;2022-11-15T03:07:45;10.45;;;5.88;;
12635;SDS011;6383;50.830;7.210;2022-11-15T03:10:22;7.53;;;5.85;;
12635;SDS011;6383;50.830;7.210;2022-11-15T03:12:59;6.60;;;5.90;;
12635;SDS011;6383;50.830;7.210;2022-11-15T03:15:38;9.40;;;6.50;;
12635;SDS011;6383;50.830;7.210;2022-11-15T03:18:15;7.35;;;6.57;;
12635;SDS011;6383;50.830;7.210;2022-11-15T03:20:48;7.40;;;6.47;;
12635;SDS011;6383;50.830;7.210;2022-11-15T03:23:19;7.32;;;6.40;;
12635;SDS011;6383;50.830;7.210;2022-11-15T03:25:48;9.93;;;6.25;;
12635;SDS011;6383;50.830;7.210;2022-11-15T03:28:20;8.05;;;7.28;;
12635;SDS011;6383;50.830;7.210;2022-11-15T03:30:54;7.28;;;6.57;;
12635;SDS011;6383;50.830;7.210;2022-11-15T03:33:25;6.53;;;5.90;;
12635;SDS011;6383;50.830;7.210;2022-11-15T03:35:56;6.95;;;6.20;;
12635;SDS011;6383;50.830;7.210;2022-11-15T03:38:25;9.02;;;6.53;;
12635;SDS011;6383;50.830;7.210;2022-11-15T03:40:54;6.10;;;5.50;;
12635;SDS011;6383;50.830;7.210;2022-11-15T03:43:29;9.40;;;6.50;;
12635;SDS011;6383;50.830;7.210;2022-11-15T03:46:06;7.80;;;6.35;;
12635;SDS011;6383;50.830;7.210;2022-11-15T03:48:41;6.97;;;6.28;;
12635;SDS011;6383;50.830;7.210;2022-11-15T03:51:17;6.95;;;6.20;;
12635;SDS011;6383;50.830;7.210;2022-11-15T03:53:46;7.30;;;5.63;;
12635;SDS011;6383;50.830;7.210;2022-11-15T03:56:15;7.65;;;5.78;;
12635;SDS011;6383;50.830;7.210;2022-11-15T03:58:42;6.50;;;5.90;;
12635;SDS011;6383;50.830;7.210;2022-11-15T04:01:10;8.50;;;6.30;;
12635;SDS011;6383;50.830;7.210;2022-11-15T04:03:39;6.72;;;6.03;;
12635;SDS011;6383;50.830;7.210;2022-11-15T04:06:06;6.93;;;6.32;;
12635;SDS011;6383;50.830;7.210;2022-11-15T04:08:36;6.75;;;6.13;;
12635;SDS011;6383;50.830;7.210;2022-11-15T04:11:04;8.40;;;6.00;;
12635;SDS011;6383;50.830;7.210;2022-11-15T04:13:32;6.82;;;5.93;;
12635;SDS011;6383;50.830;7.210;2022-11-15T04:16:01;6.55;;;5.75;;
12635;SDS011;6383;50.830;7.210;2022-11-15T04:18:29;6.07;;;5.47;;
12635;SDS011;6383;50.830;7.210;2022-11-15T04:20:57;9.07;;;5.88;;
12635;SDS011;6383;50.830;7.210;2022-11-15T04:23:40;6.90;;;6.20;;
12635;SDS011;6383;50.830;7.210;2022-11-15T04:26:27;6.78;;;6.07;;
12635;SDS011;6383;50.830;7.210;2022-11-15T04:28:56;6.63;;;5.68;;
12635;SDS011;6383;50.830;7.210;2022-11-15T04:31:43;6.47;;;5.80;;
12635;SDS011;6383;50.830;7.210;2022-11-15T04:34:12;6.65;;;5.82;;
12635;SDS011;6383;50.830;7.210;2022-11-15T04:36:41;6.22;;;5.32;;
12635;SDS011;6383;50.830;7.210;2022-11-15T04:39:29;6.95;;;5.50;;
12635;SDS011;6383;50.830;7.210;2022-11-15T04:41:57;7.22;;;5.50;;
12635;SDS011;6383;50.830;7.210;2022-11-15T04:44:24;6.50;;;5.90;;
12635;SDS011;6383;50.830;7.210;2022-11-15T04:46:52;6.55;;;5.90;;
12635;SDS011;6383;50.830;7.210;2022-11-15T04:49:19;9.20;;;6.88;;
12635;SDS011;6383;50.830;7.210;2022-11-15T04:51:47;11.07;;;5.97;;
12635;SDS011;6383;50.830;7.210;2022-11-15T04:54:15;9.00;;;8.10;;
12635;SDS011;6383;50.830;7.210;2022-11-15T04:56:44;10.15;;;9.10;;
12635;SDS011;6383;50.830;7.210;2022-11-15T04:59:16;8.00;;;7.30;;
12635;SDS011;6383;50.830;7.210;2022-11-15T05:01:45;7.22;;;6.53;;
12635;SDS011;6383;50.830;7.210;2022-11-15T05:04:14;6.47;;;5.85;;
12635;SDS011;6383;50.830;7.210;2022-11-15T05:06:48;8.82;;;6.32;;
12635;SDS011;6383;50.830;7.210;2022-11-15T05:09:18;8.95;;;8.10;;
12635;SDS011;6383;50.830;7.210;2022-11-15T05:11:49;8.07;;;6.40;;
12635;SDS011;6383;50.830;7.210;2022-11-15T05:14:18;11.55;;;7.93;;
12635;SDS011;6383;50.830;7.210;2022-11-15T05:16:48;12.25;;;9.30;;
12635;SDS011;6383;50.830;7.210;2022-11-15T05:19:20;14.93;;;8.40;;
12635;SDS011;6383;50.830;7.210;2022-11-15T05:21:49;8.50;;;7.53;;
12635;SDS011;6383;50.830;7.210;2022-11-15T05:24:19;8.13;;;5.32;;
12635;SDS011;6383;50.830;7.210;2022-11-15T05:26:46;11.43;;;6.45;;
12635;SDS011;6383;50.830;7.210;2022-11-15T05:29:15;5.32;;;4.82;;
12635;SDS011;6383;50.830;7.210;2022-11-15T05:35:04;4.13;;;3.83;;
12635;SDS011;6383;50.830;7.210;2022-11-15T05:37:37;4.57;;;4.20;;
12635;SDS011;6383;50.830;7.210;2022-11-15T05:40:05;4.88;;;4.47;;
12635;SDS011;6383;50.830;7.210;2022-11-15T05:42:35;5.97;;;4.63;;
12635;SDS011;6383;50.830;7.210;2022-11-15T05:45:06;8.48;;;4.38;;
12635;SDS011;6383;50.830;7.210;2022-11-15T05:47:40;3.95;;;3.53;;
12635;SDS011;6383;50.830;7.210;2022-11-15T05:50:10;4.85;;;4.47;;
12635;SDS011;6383;50.830;7.210;2022-11-15T05:52:39;7.35;;;4.28;;
12635;SDS011;6383;50.830;7.210;2022-11-15T05:55:07;4.80;;;4.40;;
12635;SDS011;6383;50.830;7.210;2022-11-15T05:57:36;6.43;;;3.92;;
12635;SDS011;6383;50.830;7.210;2022-11-15T06:00:06;5.60;;;4.38;;
12635;SDS011;6383;50.830;7.210;2022-11-15T06:02:36;5.55;;;4.10;;
12635;SDS011;6383;50.830;7.210;2022-11-15T06:05:04;4.65;;;4.25;;
12635;SDS011;6383;50.830;7.210;2022-11-15T06:07:33;6.13;;;4.13;;
12635;SDS011;6383;50.830;7.210;2022-11-15T06:10:03;6.90;;;4.25;;
12635;SDS011;6383;50.830;7.210;2022-11-15T06:12:37;7.50;;;3.80;;
12635;SDS011;6383;50.830;7.210;2022-11-15T06:17:37;5.05;;;3.60;;
12635;SDS011;6383;50.830;7.210;2022-11-15T06:20:06;3.90;;;3.55;;
12635;SDS011;6383;50.830;7.210;2022-11-15T06:22:36;3.80;;;3.42;;
12635;SDS011;6383;50.830;7.210;2022-11-15T06:25:05;5.22;;;3.13;;
12635;SDS011;6383;50.830;7.210;2022-11-15T06:27:34;3.30;;;3.00;;
12635;SDS011;6383;50.830;7.210;2022-11-15T06:30:05;6.00;;;3.13;;
12635;SDS011;6383;50.830;7.210;2022-11-15T06:32:36;2.90;;;2.70;;
12635;SDS011;6383;50.830;7.210;2022-11-15T06:35:06;7.10;;;3.22;;
12635;SDS011;6383;50.830;7.210;2022-11-15T06:37:33;5.25;;;3.35;;
12635;SDS011;6383;50.830;7.210;2022-11-15T06:40:02;3.45;;;3.10;;
12635;SDS011;6383;50.830;7.210;2022-11-15T06:42:34;3.17;;;2.90;;
12635;SDS011;6383;50.830;7.210;2022-11-15T06:45:03;2.63;;;2.42;;
12635;SDS011;6383;50.830;7.210;2022-11-15T06:47:32;2.72;;;2.53;;
12635;SDS011;6383;50.830;7.210;2022-11-15T06:50:03;4.57;;;2.35;;
12635;SDS011;6383;50.830;7.210;2022-11-15T06:52:33;4.30;;;2.58;;
12635;SDS011;6383;50.830;7.210;2022-11-15T06:55:02;2.97;;;2.78;;
12635;SDS011;6383;50.830;7.210;2022-11-15T06:57:31;2.75;;;2.55;;
12635;SDS011;6383;50.830;7.210;2022-11-15T06:59:59;4.93;;;2.80;;
12635;SDS011;6383;50.830;7.210;2022-11-15T07:02:28;2.50;;;2.30;;
12635;SDS011;6383;50.830;7.210;2022-11-15T07:04:57;3.42;;;2.55;;
12635;SDS011;6383;50.830;7.210;2022-11-15T07:07:28;4.18;;;2.67;;
12635;SDS011;6383;50.830;7.210;2022-11-15T07:10:04;3.50;;;2.75;;
12635;SDS011;6383;50.830;7.210;2022-11-15T07:12:35;3.03;;;2.78;;
12635;SDS011;6383;50.830;7.210;2022-11-15T07:15:04;1.85;;;1.70;;
12635;SDS011;6383;50.830;7.210;2022-11-15T07:17:34;2.83;;;2.05;;
12635;SDS011;6383;50.830;7.210;2022-11-15T07:20:03;1.60;;;1.50;;
12635;SDS011;6383;50.830;7.210;2022-11-15T07:22:34;4.03;;;1.77;;
12635;SDS011;6383;50.830;7.210;2022-11-15T07:25:04;2.50;;;1.70;;
12635;SDS011;6383;50.830;7.210;2022-11-15T07:27:33;2.95;;;1.67;;
12635;SDS011;6383;50.830;7.210;2022-11-15T07:30:03;2.50;;;1.95;;
12635;SDS011;6383;50.830;7.210;2022-11-15T07:32:34;2.75;;;1.60;;
12635;SDS011;6383;50.830;7.210;2022-11-15T07:35:02;4.75;;;1.98;;
12635;SDS011;6383;50.830;7.210;2022-11-15T07:37:32;2.00;;;1.80;;
12635;SDS011;6383;50.830;7.210;2022-11-15T07:40:01;1.70;;;1.60;;
12635;SDS011;6383;50.830;7.210;2022-11-15T07:42:30;1.65;;;1.55;;
12635;SDS011;6383;50.830;7.210;2022-11-15T07:45:17;2.05;;;1.80;;
12635;SDS011;6383;50.830;7.210;2022-11-15T07:47:46;1.88;;;1.77;;
12635;SDS011;6383;50.830;7.210;2022-11-15T07:50:16;4.57;;;1.98;;
12635;SDS011;6383;50.830;7.210;2022-11-15T07:52:46;4.05;;;2.42;;
12635;SDS011;6383;50.830;7.210;2022-11-15T07:55:16;2.50;;;2.30;;
12635;SDS011;6383;50.830;7.210;2022-11-15T07:57:43;2.25;;;2.15;;
12635;SDS011;6383;50.830;7.210;2022-11-15T08:00:13;2.40;;;2.20;;
12635;SDS011;6383;50.830;7.210;2022-11-15T08:02:43;2.58;;;2.30;;
12635;SDS011;6383;50.830;7.210;2022-11-15T08:05:12;1.90;;;1.60;;
12635;SDS011;6383;50.830;7.210;2022-11-15T08:07:43;6.55;;;5.05;;
12635;SDS011;6383;50.830;7.210;2022-11-15T08:10:12;2.80;;;1.73;;
12635;SDS011;6383;50.830;7.210;2022-11-15T08:12:44;2.10;;;1.80;;
12635;SDS011;6383;50.830;7.210;2022-11-15T08:15:13;1.95;;;1.80;;
12635;SDS011;6383;50.830;7.210;2022-11-15T08:17:40;1.95;;;1.63;;
12635;SDS011;6383;50.830;7.210;2022-11-15T08:20:10;2.47;;;1.58;;
12635;SDS011;6383;50.830;7.210;2022-11-15T08:22:39;2.72;;;1.90;;
12635;SDS011;6383;50.830;7.210;2022-11-15T08:25:09;3.95;;;2.25;;
12635;SDS011;6383;50.830;7.210;2022-11-15T08:27:39;1.67;;;1.58;;
12635;SDS011;6383;50.830;7.210;2022-11-15T08:30:08;4.20;;;1.80;;
12635;SDS011;6383;50.830;7.210;2022-11-15T08:32:38;3.47;;;1.67;;
12635;SDS011;6383;50.830;7.210;2022-11-15T08:35:07;1.83;;;1.73;;
12635;SDS011;6383;50.830;7.210;2022-11-15T08:37:36;4.10;;;1.98;;
12635;SDS011;6383;50.830;7.210;2022-11-15T08:40:06;2.03;;;1.67;;
12635;SDS011;6383;50.830;7.210;2022-11-15T08:42:37;2.35;;;2.13;;
12635;SDS011;6383;50.830;7.210;2022-11-15T08:45:08;2.58;;;1.63;;
12635;SDS011;6383;50.830;7.210;2022-11-15T08:47:38;2.70;;;2.03;;
12635;SDS011;6383;50.830;7.210;2022-11-15T08:50:08;3.70;;;1.60;;
12635;SDS011;6383;50.830;7.210;2022-11-15T08:52:35;2.72;;;2.17;;
12635;SDS011;6383;50.830;7.210;2022-11-15T08:55:05;2.25;;;1.67;;
12635;SDS011;6383;50.830;7.210;2022-11-15T08:57:34;2.13;;;1.30;;
12635;SDS011;6383;50.830;7.210;2022-11-15T09:00:04;1.77;;;1.08;;
12635;SDS011;6383;50.830;7.210;2022-11-15T09:02:35;1.75;;;1.50;;
12635;SDS011;6383;50.830;7.210;2022-11-15T09:05:07;8.25;;;1.40;;
12635;SDS011;6383;50.830;7.210;2022-11-15T09:07:35;5.20;;;1.50;;
12635;SDS011;6383;50.830;7.210;2022-11-15T09:10:03;6.50;;;1.30;;
12635;SDS011;6383;50.830;7.210;2022-11-15T09:12:33;2.97;;;1.50;;
12635;SDS011;6383;50.830;7.210;2022-11-15T09:15:03;1.60;;;1.20;;
12635;SDS011;6383;50.830;7.210;2022-11-15T09:17:32;4.40;;;1.30;;
12635;SDS011;6383;50.830;7.210;2022-11-15T09:20:01;2.05;;;1.40;;
12635;SDS011;6383;50.830;7.210;2022-11-15T09:22:32;1.17;;;1.02;;
12635;SDS011;6383;50.830;7.210;2022-11-15T09:25:01;2.70;;;1.90;;
12635;SDS011;6383;50.830;7.210;2022-11-15T09:27:29;3.90;;;1.45;;
12635;SDS011;6383;50.830;7.210;2022-11-15T09:29:58;2.45;;;1.10;;
12635;SDS011;6383;50.830;7.210;2022-11-15T09:32:30;1.30;;;1.20;;
12635;SDS011;6383;50.830;7.210;2022-11-15T09:34:57;5.30;;;1.45;;
12635;SDS011;6383;50.830;7.210;2022-11-15T09:37:28;1.42;;;1.33;;
12635;SDS011;6383;50.830;7.210;2022-11-15T09:39:58;4.07;;;1.38;;
12635;SDS011;6383;50.830;7.210;2022-11-15T09:42:42;2.17;;;1.23;;
12635;SDS011;6383;50.830;7.210;2022-11-15T09:45:20;1.65;;;0.70;;
12635;SDS011;6383;50.830;7.210;2022-11-15T09:48:02;5.05;;;1.30;;
12635;SDS011;6383;50.830;7.210;2022-11-15T09:50:51;2.20;;;1.23;;
12635;SDS011;6383;50.830;7.210;2022-11-15T09:53:29;2.17;;;0.88;;
12635;SDS011;6383;50.830;7.210;2022-11-15T09:56:01;1.20;;;1.10;;
12635;SDS011;6383;50.830;7.210;2022-11-15T09:58:35;2.70;;;1.00;;
12635;SDS011;6383;50.830;7.210;2022-11-15T10:01:08;1.65;;;0.90;;
12635;SDS011;6383;50.830;7.210;2022-11-15T10:03:45;2.55;;;1.08;;
12635;SDS011;6383;50.830;7.210;2022-11-15T10:06:15;1.85;;;0.70;;
12635;SDS011;6383;50.830;7.210;2022-11-15T10:08:56;1.02;;;0.80;;
12635;SDS011;6383;50.830;7.210;2022-11-15T10:11:31;0.70;;;0.70;;
12635;SDS011;6383;50.830;7.210;2022-11-15T10:14:04;1.75;;;1.35;;
12635;SDS011;6383;50.830;7.210;2022-11-15T10:19:59;2.85;;;0.98;;
12635;SDS011;6383;50.830;7.210;2022-11-15T10:22:39;2.97;;;0.90;;
12635;SDS011;6383;50.830;7.210;2022-11-15T10:25:12;2.05;;;0.80;;
12635;SDS011;6383;50.830;7.210;2022-11-15T10:27:47;1.95;;;1.27;;
12635;SDS011;6383;50.830;7.210;2022-11-15T10:30:20;3.50;;;0.80;;
12635;SDS011;6383;50.830;7.210;2022-11-15T10:32:50;1.75;;;0.75;;
12635;SDS011;6383;50.830;7.210;2022-11-15T10:35:20;3.78;;;1.42;;
12635;SDS011;6383;50.830;7.210;2022-11-15T10:37:53;2.30;;;0.80;;
12635;SDS011;6383;50.830;7.210;2022-11-15T10:40:34;2.70;;;0.90;;
12635;SDS011;6383;50.830;7.210;2022-11-15T10:43:04;5.80;;;0.70;;
12635;SDS011;6383;50.830;7.210;2022-11-15T10:45:41;2.92;;;1.17;;
12635;SDS011;6383;50.830;7.210;2022-11-15T10:48:22;1.67;;;0.68;;
12635;SDS011;6383;50.830;7.210;2022-11-15T10:50:52;5.00;;;0.70;;
12635;SDS011;6383;50.830;7.210;2022-11-15T10:53:26;3.88;;;0.82;;
12635;SDS011;6383;50.830;7.210;2022-11-15T10:56:01;1.80;;;0.65;;
12635;SDS011;6383;50.830;7.210;2022-11-15T10:58:35;1.35;;;0.70;;
12635;SDS011;6383;50.830;7.210;2022-11-15T11:01:13;3.33;;;1.10;;
12635;SDS011;6383;50.830;7.210;2022-11-15T11:03:43;1.95;;;0.70;;
12635;SDS011;6383;50.830;7.210;2022-11-15T11:06:14;0.90;;;0.65;;
12635;SDS011;6383;50.830;7.210;2022-11-15T11:08:53;3.67;;;0.80;;
12635;SDS011;6383;50.830;7.210;2022-11-15T11:11:25;3.97;;;0.82;;
12635;SDS011;6383;50.830;7.210;2022-11-15T11:16:49;1.02;;;0.73;;
12635;SDS011;6383;50.830;7.210;2022-11-15T11:19:31;1.13;;;0.70;;
12635;SDS011;6383;50.830;7.210;2022-11-15T11:22:13;9.75;;;1.88;;
12635;SDS011;6383;50.830;7.210;2022-11-15T11:24:51;6.15;;;1.17;;
12635;SDS011;6383;50.830;7.210;2022-11-15T11:30:13;2.83;;;1.00;;
12635;SDS011;6383;50.830;7.210;2022-11-15T11:32:49;1.42;;;0.80;;
12635;SDS011;6383;50.830;7.210;2022-11-15T11:35:26;4.95;;;1.02;;
12635;SDS011;6383;50.830;7.210;2022-11-15T11:38:02;1.52;;;0.75;;
12635;SDS011;6383;50.830;7.210;2022-11-15T11:40:43;3.58;;;0.90;;
12635;SDS011;6383;50.830;7.210;2022-11-15T11:43:20;2.05;;;0.90;;
12635;SDS011;6383;50.830;7.210;2022-11-15T11:46:07;3.35;;;0.70;;
12635;SDS011;6383;50.830;7.210;2022-11-15T11:48:46;2.70;;;0.95;;
12635;SDS011;6383;50.830;7.210;2022-11-15T11:51:19;5.30;;;1.98;;
12635;SDS011;6383;50.830;7.210;2022-11-15T11:53:53;4.65;;;0.90;;
12635;SDS011;6383;50.830;7.210;2022-11-15T11:56:26;3.43;;;0.80;;
12635;SDS011;6383;50.830;7.210;2022-11-15T11:59:00;2.60;;;1.13;;
12635;SDS011;6383;50.830;7.210;2022-11-15T12:01:36;3.40;;;1.45;;
12635;SDS011;6383;50.830;7.210;2022-11-15T12:04:10;2.08;;;0.93;;
12635;SDS011;6383;50.830;7.210;2022-11-15T12:06:45;1.15;;;1.00;;
12635;SDS011;6383;50.830;7.210;2022-11-15T12:09:19;3.13;;;1.15;;
12635;SDS011;6383;50.830;7.210;2022-11-15T12:11:55;0.80;;;0.80;;
12635;SDS011;6383;50.830;7.210;2022-11-15T12:14:32;6.90;;;1.10;;
12635;SDS011;6383;50.830;7.210;2022-11-15T12:17:08;4.50;;;0.88;;
12635;SDS011;6383;50.830;7.210;2022-11-15T12:19:39;2.70;;;1.08;;
12635;SDS011;6383;50.830;7.210;2022-11-15T12:22:10;3.30;;;1.15;;
12635;SDS011;6383;50.830;7.210;2022-11-15T12:24:45;3.75;;;0.90;;
12635;SDS011;6383;50.830;7.210;2022-11-15T12:27:21;0.90;;;0.90;;
12635;SDS011;6383;50.830;7.210;2022-11-15T12:30:00;4.60;;;1.00;;
12635;SDS011;6383;50.830;7.210;2022-11-15T12:32:33;6.88;;;1.05;;
12635;SDS011;6383;50.830;7.210;2022-11-15T12:35:05;2.40;;;0.95;;
12635;SDS011;6383;50.830;7.210;2022-11-15T12:37:49;2.13;;;1.05;;
12635;SDS011;6383;50.830;7.210;2022-11-15T12:40:34;7.43;;;1.50;;
12635;SDS011;6383;50.830;7.210;2022-11-15T12:46:08;2.75;;;1.23;;
12635;SDS011;6383;50.830;7.210;2022-11-15T12:57:47;4.13;;;2.08;;
12635;SDS011;6383;50.830;7.210;2022-11-15T13:03:25;1.80;;;1.60;;
12635;SDS011;6383;50.830;7.210;2022-11-15T13:06:05;2.72;;;1.77;;
12635;SDS011;6383;50.830;7.210;2022-11-15T13:08:43;1.80;;;1.70;;
12635;SDS011;6383;50.830;7.210;2022-11-15T13:19:59;3.33;;;1.45;;
12635;SDS011;6383;50.830;7.210;2022-11-15T13:22:46;3.20;;;1.60;;
12635;SDS011;6383;50.830;7.210;2022-11-15T13:25:23;4.32;;;3.03;;
12635;SDS011;6383;50.830;7.210;2022-11-15T13:28:00;6.55;;;2.10;;
12635;SDS011;6383;50.830;7.210;2022-11-15T13:30:30;3.47;;;2.95;;
12635;SDS011;6383;50.830;7.210;2022-11-15T13:33:00;4.85;;;2.10;;
12635;SDS011;6383;50.830;7.210;2022-11-15T13:35:40;3.42;;;2.03;;
12635;SDS011;6383;50.830;7.210;2022-11-15T13:38:17;8.07;;;2.13;;
12635;SDS011;6383;50.830;7.210;2022-11-15T13:40:52;2.83;;;1.50;;
12635;SDS011;6383;50.830;7.210;2022-11-15T13:43:34;2.67;;;1.83;;
12635;SDS011;6383;50.830;7.210;2022-11-15T13:46:05;3.00;;;2.15;;
12635;SDS011;6383;50.830;7.210;2022-11-15T13:48:43;2.33;;;1.65;;
12635;SDS011;6383;50.830;7.210;2022-11-15T13:51:17;2.90;;;2.25;;
12635;SDS011;6383;50.830;7.210;2022-11-15T13:53:50;4.65;;;1.70;;
12635;SDS011;6383;50.830;7.210;2022-11-15T13:58:54;3.50;;;1.80;;
12635;SDS011;6383;50.830;7.210;2022-11-15T14:01:23;8.32;;;2.08;;
12635;SDS011;6383;50.830;7.210;2022-11-15T14:03:56;2.65;;;1.48;;
12635;SDS011;6383;50.830;7.210;2022-11-15T14:06:27;3.58;;;1.85;;
12635;SDS011;6383;50.830;7.210;2022-11-15T14:08:58;1.63;;;1.52;;
12635;SDS011;6383;50.830;7.210;2022-11-15T14:11:48;1.73;;;1.63;;
12635;SDS011;6383;50.830;7.210;2022-11-15T14:14:17;7.70;;;1.95;;
12635;SDS011;6383;50.830;7.210;2022-11-15T14:16:50;1.70;;;1.30;;
12635;SDS011;6383;50.830;7.210;2022-11-15T14:19:36;2.30;;;1.45;;
12635;SDS011;6383;50.830;7.210;2022-11-15T14:25:13;1.27;;;1.20;;
12635;SDS011;6383;50.830;7.210;2022-11-15T14:27:43;3.13;;;1.48;;
12635;SDS011;6383;50.830;7.210;2022-11-15T14:30:14;1.63;;;1.10;;
12635;SDS011;6383;50.830;7.210;2022-11-15T14:32:43;2.92;;;1.27;;
12635;SDS011;6383;50.830;7.210;2022-11-15T14:35:15;1.38;;;1.20;;
12635;SDS011;6383;50.830;7.210;2022-11-15T14:37:47;2.53;;;1.23;;
12635;SDS011;6383;50.830;7.210;2022-11-15T14:40:17;4.45;;;1.27;;
12635;SDS011;6383;50.830;7.210;2022-11-15T14:42:48;2.13;;;1.35;;
12635;SDS011;6383;50.830;7.210;2022-11-15T14:45:19;2.65;;;1.48;;
12635;SDS011;6383;50.830;7.210;2022-11-15T14:47:50;2.95;;;1.80;;
12635;SDS011;6383;50.830;7.210;2022-11-15T14:50:19;2.38;;;1.45;;
12635;SDS011;6383;50.830;7.210;2022-11-15T14:52:51;3.65;;;1.60;;
12635;SDS011;6383;50.830;7.210;2022-11-15T14:55:21;8.60;;;1.40;;
12635;SDS011;6383;50.830;7.210;2022-11-15T14:57:51;6.03;;;1.33;;
12635;SDS011;6383;50.830;7.210;2022-11-15T15:00:20;7.47;;;2.20;;
12635;SDS011;6383;50.830;7.210;2022-11-15T15:02:51;1.38;;;1.27;;
12635;SDS011;6383;50.830;7.210;2022-11-15T15:05:23;6.60;;;1.38;;
12635;SDS011;6383;50.830;7.210;2022-11-15T15:07:54;2.05;;;1.23;;
12635;SDS011;6383;50.830;7.210;2022-11-15T15:10:22;3.22;;;1.40;;
12635;SDS011;6383;50.830;7.210;2022-11-15T15:12:51;3.17;;;1.40;;
12635;SDS011;6383;50.830;7.210;2022-11-15T15:15:22;4.53;;;1.80;;
12635;SDS011;6383;50.830;7.210;2022-11-15T15:17:53;1.75;;;1.25;;
12635;SDS011;6383;50.830;7.210;2022-11-15T15:20:21;2.53;;;1.50;;
12635;SDS011;6383;50.830;7.210;2022-11-15T15:22:56;3.35;;;0.90;;
12635;SDS011;6383;50.830;7.210;2022-11-15T15:25:26;2.88;;;1.50;;
12635;SDS011;6383;50.830;7.210;2022-11-15T15:27:56;2.10;;;1.15;;
12635;SDS011;6383;50.830;7.210;2022-11-15T15:30:24;2.35;;;1.23;;
12635;SDS011;6383;50.830;7.210;2022-11-15T15:32:55;1.83;;;1.20;;
12635;SDS011;6383;50.830;7.210;2022-11-15T15:35:26;1.08;;;0.95;;
12635;SDS011;6383;50.830;7.210;2022-11-15T15:38:01;6.57;;;1.30;;
12635;SDS011;6383;50.830;7.210;2022-11-15T15:40:30;1.70;;;1.40;;
12635;SDS011;6383;50.830;7.210;2022-11-15T15:43:00;2.90;;;1.25;;
12635;SDS011;6383;50.830;7.210;2022-11-15T15:45:28;2.65;;;1.67;;
12635;SDS011;6383;50.830;7.210;2022-11-15T15:47:56;1.73;;;1.25;;
12635;SDS011;6383;50.830;7.210;2022-11-15T15:50:26;2.65;;;1.33;;
12635;SDS011;6383;50.830;7.210;2022-11-15T15:52:57;3.00;;;1.38;;
12635;SDS011;6383;50.830;7.210;2022-11-15T15:55:38;2.83;;;1.88;;
12635;SDS011;6383;50.830;7.210;2022-11-15T15:58:05;2.97;;;2.08;;
12635;SDS011;6383;50.830;7.210;2022-11-15T16:00:35;1.60;;;1.50;;
12635;SDS011;6383;50.830;7.210;2022-11-15T16:03:05;2.67;;;1.67;;
12635;SDS011;6383;50.830;7.210;2022-11-15T16:05:35;2.80;;;1.55;;
12635;SDS011;6383;50.830;7.210;2022-11-15T16:08:04;2.28;;;1.40;;
12635;SDS011;6383;50.830;7.210;2022-11-15T16:10:33;1.83;;;1.63;;
12635;SDS011;6383;50.830;7.210;2022-11-15T16:13:02;4.85;;;1.73;;
12635;SDS011;6383;50.830;7.210;2022-11-15T16:15:30;2.00;;;1.85;;